sensor_id;sensor_type;location;lat;lon;timestamp;P1;durP1;ratioP1;P2;durP2;ratioP2
37237;SDS011;23129;49.662;8.448;2023-04-25T00:01:34;6.07;;;3.33;;
37237;SDS011;23129;49.662;8.448;2023-04-25T00:04:04;3.45;;;2.95;;
37237;SDS011;23129;49.662;8.448;2023-04-25T00:06:33;3.85;;;3.25;;
37237;SDS011;23129;49.662;8.448;2023-04-25T00:09:03;3.90;;;2.80;;
37237;SDS011;23129;49.662;8.448;2023-04-25T00:11:33;5.05;;;3.65;;
37237;SDS011;23129;49.662;8.448;2023-04-25T00:14:03;3.30;;;2.95;;
37237;SDS011;23129;49.662;8.448;2023-04-25T00:16:34;7.43;;;3.35;;
37237;SDS011;23129;49.662;8.448;2023-04-25T00:19:03;4.82;;;4.32;;
37237;SDS011;23129;49.662;8.448;2023-04-25T00:21:32;3.17;;;2.88;;
37237;SDS011;23129;49.662;8.448;2023-04-25T00:24:01;5.15;;;3.22;;
37237;SDS011;23129;49.662;8.448;2023-04-25T00:26:31;3.28;;;2.75;;
37237;SDS011;23129;49.662;8.448;2023-04-25T00:28:59;5.03;;;3.97;;
37237;SDS011;23129;49.662;8.448;2023-04-25T00:31:28;4.80;;;3.25;;
37237;SDS011;23129;49.662;8.448;2023-04-25T00:33:58;3.53;;;3.03;;
37237;SDS011;23129;49.662;8.448;2023-04-25T00:36:27;4.97;;;3.20;;
37237;SDS011;23129;49.662;8.448;2023-04-25T00:38:56;4.65;;;3.53;;
37237;SDS011;23129;49.662;8.448;2023-04-25T00:41:25;7.32;;;3.63;;
37237;SDS011;23129;49.662;8.448;2023-04-25T00:43:54;4.65;;;3.45;;
37237;SDS011;23129;49.662;8.448;2023-04-25T00:46:23;5.13;;;3.53;;
37237;SDS011;23129;49.662;8.448;2023-04-25T00:48:52;5.47;;;3.67;;
37237;SDS011;23129;49.662;8.448;2023-04-25T00:51:22;4.18;;;3.38;;
37237;SDS011;23129;49.662;8.448;2023-04-25T00:53:53;4.75;;;4.22;;
37237;SDS011;23129;49.662;8.448;2023-04-25T00:56:22;6.78;;;4.03;;
37237;SDS011;23129;49.662;8.448;2023-04-25T00:58:51;5.35;;;4.47;;
37237;SDS011;23129;49.662;8.448;2023-04-25T01:01:22;6.03;;;4.63;;
37237;SDS011;23129;49.662;8.448;2023-04-25T01:03:51;9.50;;;5.85;;
37237;SDS011;23129;49.662;8.448;2023-04-25T01:06:23;8.18;;;4.85;;
37237;SDS011;23129;49.662;8.448;2023-04-25T01:08:53;9.18;;;5.53;;
37237;SDS011;23129;49.662;8.448;2023-04-25T01:11:22;9.57;;;5.50;;
37237;SDS011;23129;49.662;8.448;2023-04-25T01:13:51;7.43;;;5.18;;
37237;SDS011;23129;49.662;8.448;2023-04-25T01:16:20;8.65;;;5.78;;
37237;SDS011;23129;49.662;8.448;2023-04-25T01:18:50;5.68;;;4.53;;
37237;SDS011;23129;49.662;8.448;2023-04-25T01:21:20;8.80;;;5.75;;
37237;SDS011;23129;49.662;8.448;2023-04-25T01:23:48;8.55;;;5.90;;
37237;SDS011;23129;49.662;8.448;2023-04-25T01:26:18;7.00;;;4.93;;
37237;SDS011;23129;49.662;8.448;2023-04-25T01:28:48;8.45;;;5.43;;
37237;SDS011;23129;49.662;8.448;2023-04-25T01:31:17;7.28;;;5.32;;
37237;SDS011;23129;49.662;8.448;2023-04-25T01:33:47;5.93;;;5.18;;
37237;SDS011;23129;49.662;8.448;2023-04-25T01:36:16;6.95;;;5.00;;
37237;SDS011;23129;49.662;8.448;2023-04-25T01:38:46;7.78;;;5.80;;
37237;SDS011;23129;49.662;8.448;2023-04-25T01:41:15;7.57;;;5.10;;
37237;SDS011;23129;49.662;8.448;2023-04-25T01:43:44;8.30;;;5.75;;
37237;SDS011;23129;49.662;8.448;2023-04-25T01:46:13;13.00;;;6.88;;
37237;SDS011;23129;49.662;8.448;2023-04-25T01:48:42;10.20;;;5.47;;
37237;SDS011;23129;49.662;8.448;2023-04-25T01:51:11;8.13;;;5.88;;
37237;SDS011;23129;49.662;8.448;2023-04-25T01:53:40;12.25;;;6.43;;
37237;SDS011;23129;49.662;8.448;2023-04-25T01:56:11;8.48;;;5.75;;
37237;SDS011;23129;49.662;8.448;2023-04-25T01:58:40;7.72;;;5.68;;
37237;SDS011;23129;49.662;8.448;2023-04-25T02:01:18;8.77;;;5.95;;
37237;SDS011;23129;49.662;8.448;2023-04-25T02:04:02;9.10;;;5.97;;
37237;SDS011;23129;49.662;8.448;2023-04-25T02:06:34;10.90;;;6.38;;
37237;SDS011;23129;49.662;8.448;2023-04-25T02:09:03;9.32;;;5.95;;
37237;SDS011;23129;49.662;8.448;2023-04-25T02:11:33;11.13;;;6.72;;
37237;SDS011;23129;49.662;8.448;2023-04-25T02:14:21;8.88;;;5.40;;
37237;SDS011;23129;49.662;8.448;2023-04-25T02:17:19;12.77;;;6.38;;
37237;SDS011;23129;49.662;8.448;2023-04-25T02:19:49;11.55;;;7.15;;
37237;SDS011;23129;49.662;8.448;2023-04-25T02:22:18;9.60;;;5.63;;
37237;SDS011;23129;49.662;8.448;2023-04-25T02:24:47;11.70;;;6.75;;
37237;SDS011;23129;49.662;8.448;2023-04-25T02:27:17;7.95;;;5.65;;
37237;SDS011;23129;49.662;8.448;2023-04-25T02:29:45;15.52;;;6.53;;
37237;SDS011;23129;49.662;8.448;2023-04-25T02:32:14;9.73;;;6.03;;
37237;SDS011;23129;49.662;8.448;2023-04-25T02:34:43;11.27;;;6.35;;
37237;SDS011;23129;49.662;8.448;2023-04-25T02:37:11;9.73;;;6.10;;
37237;SDS011;23129;49.662;8.448;2023-04-25T02:39:40;10.35;;;7.00;;
37237;SDS011;23129;49.662;8.448;2023-04-25T02:42:09;9.10;;;6.43;;
37237;SDS011;23129;49.662;8.448;2023-04-25T02:44:39;6.95;;;5.43;;
37237;SDS011;23129;49.662;8.448;2023-04-25T02:47:08;7.85;;;5.70;;
37237;SDS011;23129;49.662;8.448;2023-04-25T02:49:36;8.10;;;5.43;;
37237;SDS011;23129;49.662;8.448;2023-04-25T02:52:05;8.15;;;5.63;;
37237;SDS011;23129;49.662;8.448;2023-04-25T02:54:34;9.50;;;5.78;;
37237;SDS011;23129;49.662;8.448;2023-04-25T02:57:03;9.70;;;6.03;;
37237;SDS011;23129;49.662;8.448;2023-04-25T02:59:35;8.45;;;5.35;;
37237;SDS011;23129;49.662;8.448;2023-04-25T03:02:05;9.45;;;6.05;;
37237;SDS011;23129;49.662;8.448;2023-04-25T03:04:34;9.70;;;5.50;;
37237;SDS011;23129;49.662;8.448;2023-04-25T03:07:02;9.70;;;6.35;;
37237;SDS011;23129;49.662;8.448;2023-04-25T03:09:31;6.97;;;5.10;;
37237;SDS011;23129;49.662;8.448;2023-04-25T03:12:00;10.38;;;6.50;;
37237;SDS011;23129;49.662;8.448;2023-04-25T03:14:30;10.48;;;6.75;;
37237;SDS011;23129;49.662;8.448;2023-04-25T03:17:00;11.85;;;7.07;;
37237;SDS011;23129;49.662;8.448;2023-04-25T03:19:30;8.70;;;6.07;;
37237;SDS011;23129;49.662;8.448;2023-04-25T03:21:59;11.88;;;7.45;;
37237;SDS011;23129;49.662;8.448;2023-04-25T03:24:28;11.13;;;6.15;;
37237;SDS011;23129;49.662;8.448;2023-04-25T03:26:57;10.20;;;6.18;;
37237;SDS011;23129;49.662;8.448;2023-04-25T03:29:25;9.52;;;6.60;;
37237;SDS011;23129;49.662;8.448;2023-04-25T03:31:55;13.63;;;7.10;;
37237;SDS011;23129;49.662;8.448;2023-04-25T03:34:24;10.93;;;7.22;;
37237;SDS011;23129;49.662;8.448;2023-04-25T03:36:55;12.60;;;7.72;;
37237;SDS011;23129;49.662;8.448;2023-04-25T03:39:26;14.05;;;7.07;;
37237;SDS011;23129;49.662;8.448;2023-04-25T03:41:55;11.10;;;7.25;;
37237;SDS011;23129;49.662;8.448;2023-04-25T03:44:26;12.27;;;7.80;;
37237;SDS011;23129;49.662;8.448;2023-04-25T03:46:56;16.40;;;7.40;;
37237;SDS011;23129;49.662;8.448;2023-04-25T03:49:25;15.60;;;7.95;;
37237;SDS011;23129;49.662;8.448;2023-04-25T03:52:01;12.07;;;7.60;;
37237;SDS011;23129;49.662;8.448;2023-04-25T03:54:35;14.75;;;7.80;;
37237;SDS011;23129;49.662;8.448;2023-04-25T03:57:13;13.75;;;8.52;;
37237;SDS011;23129;49.662;8.448;2023-04-25T03:59:44;16.30;;;7.95;;
37237;SDS011;23129;49.662;8.448;2023-04-25T04:02:14;17.95;;;9.13;;
37237;SDS011;23129;49.662;8.448;2023-04-25T04:04:43;11.38;;;7.80;;
37237;SDS011;23129;49.662;8.448;2023-04-25T04:07:14;14.98;;;8.32;;
37237;SDS011;23129;49.662;8.448;2023-04-25T04:09:46;16.05;;;8.77;;
37237;SDS011;23129;49.662;8.448;2023-04-25T04:12:23;15.30;;;8.60;;
37237;SDS011;23129;49.662;8.448;2023-04-25T04:14:51;15.73;;;10.05;;
37237;SDS011;23129;49.662;8.448;2023-04-25T04:17:20;14.68;;;8.23;;
37237;SDS011;23129;49.662;8.448;2023-04-25T04:19:50;14.98;;;8.10;;
37237;SDS011;23129;49.662;8.448;2023-04-25T04:22:21;18.63;;;9.00;;
37237;SDS011;23129;49.662;8.448;2023-04-25T04:24:52;11.98;;;7.80;;
37237;SDS011;23129;49.662;8.448;2023-04-25T04:27:40;14.50;;;7.63;;
37237;SDS011;23129;49.662;8.448;2023-04-25T04:30:32;16.50;;;8.82;;
37237;SDS011;23129;49.662;8.448;2023-04-25T04:33:06;14.83;;;9.07;;
37237;SDS011;23129;49.662;8.448;2023-04-25T04:35:35;15.65;;;8.80;;
37237;SDS011;23129;49.662;8.448;2023-04-25T04:38:05;12.10;;;7.45;;
37237;SDS011;23129;49.662;8.448;2023-04-25T04:40:35;11.65;;;7.32;;
37237;SDS011;23129;49.662;8.448;2023-04-25T04:43:12;8.48;;;5.68;;
37237;SDS011;23129;49.662;8.448;2023-04-25T04:46:00;8.38;;;5.25;;
37237;SDS011;23129;49.662;8.448;2023-04-25T04:48:50;8.45;;;5.25;;
37237;SDS011;23129;49.662;8.448;2023-04-25T04:51:38;7.43;;;4.78;;
37237;SDS011;23129;49.662;8.448;2023-04-25T04:54:41;7.03;;;5.40;;
37237;SDS011;23129;49.662;8.448;2023-04-25T04:57:13;7.22;;;5.40;;
37237;SDS011;23129;49.662;8.448;2023-04-25T04:59:55;5.72;;;4.65;;
37237;SDS011;23129;49.662;8.448;2023-04-25T05:02:53;5.90;;;4.90;;
37237;SDS011;23129;49.662;8.448;2023-04-25T05:05:38;7.20;;;4.65;;
37237;SDS011;23129;49.662;8.448;2023-04-25T05:08:26;5.60;;;4.55;;
37237;SDS011;23129;49.662;8.448;2023-04-25T05:11:11;9.48;;;5.47;;
37237;SDS011;23129;49.662;8.448;2023-04-25T05:14:08;7.55;;;4.90;;
37237;SDS011;23129;49.662;8.448;2023-04-25T05:17:06;8.20;;;5.00;;
37237;SDS011;23129;49.662;8.448;2023-04-25T05:20:06;6.72;;;4.78;;
37237;SDS011;23129;49.662;8.448;2023-04-25T05:22:56;5.82;;;4.65;;
37237;SDS011;23129;49.662;8.448;2023-04-25T05:25:42;6.68;;;4.78;;
37237;SDS011;23129;49.662;8.448;2023-04-25T05:28:31;4.60;;;4.07;;
37237;SDS011;23129;49.662;8.448;2023-04-25T05:31:13;8.65;;;4.88;;
37237;SDS011;23129;49.662;8.448;2023-04-25T05:36:47;9.18;;;4.80;;
37237;SDS011;23129;49.662;8.448;2023-04-25T05:39:16;8.00;;;5.28;;
37237;SDS011;23129;49.662;8.448;2023-04-25T05:42:05;6.55;;;5.20;;
37237;SDS011;23129;49.662;8.448;2023-04-25T05:44:54;7.13;;;4.75;;
37237;SDS011;23129;49.662;8.448;2023-04-25T05:47:55;7.85;;;5.28;;
37237;SDS011;23129;49.662;8.448;2023-04-25T05:50:47;11.88;;;6.53;;
37237;SDS011;23129;49.662;8.448;2023-04-25T05:53:45;8.88;;;5.72;;
37237;SDS011;23129;49.662;8.448;2023-04-25T05:56:15;10.70;;;5.68;;
37237;SDS011;23129;49.662;8.448;2023-04-25T05:58:46;13.10;;;6.55;;
37237;SDS011;23129;49.662;8.448;2023-04-25T06:01:17;17.67;;;7.03;;
37237;SDS011;23129;49.662;8.448;2023-04-25T06:03:45;13.05;;;8.02;;
37237;SDS011;23129;49.662;8.448;2023-04-25T06:06:16;17.92;;;7.88;;
37237;SDS011;23129;49.662;8.448;2023-04-25T06:08:45;14.27;;;6.75;;
37237;SDS011;23129;49.662;8.448;2023-04-25T06:11:14;18.40;;;7.72;;
37237;SDS011;23129;49.662;8.448;2023-04-25T06:13:43;14.95;;;8.13;;
37237;SDS011;23129;49.662;8.448;2023-04-25T06:16:14;18.15;;;8.90;;
37237;SDS011;23129;49.662;8.448;2023-04-25T06:18:44;20.70;;;7.72;;
37237;SDS011;23129;49.662;8.448;2023-04-25T06:21:14;26.00;;;8.65;;
37237;SDS011;23129;49.662;8.448;2023-04-25T06:23:43;23.00;;;7.25;;
37237;SDS011;23129;49.662;8.448;2023-04-25T06:26:19;19.95;;;7.72;;
37237;SDS011;23129;49.662;8.448;2023-04-25T06:28:48;15.27;;;8.35;;
37237;SDS011;23129;49.662;8.448;2023-04-25T06:31:18;22.35;;;8.38;;
37237;SDS011;23129;49.662;8.448;2023-04-25T06:33:48;30.60;;;9.35;;
37237;SDS011;23129;49.662;8.448;2023-04-25T06:36:17;26.05;;;7.80;;
37237;SDS011;23129;49.662;8.448;2023-04-25T06:38:53;16.38;;;7.50;;
37237;SDS011;23129;49.662;8.448;2023-04-25T06:41:22;20.77;;;7.78;;
37237;SDS011;23129;49.662;8.448;2023-04-25T06:43:52;23.70;;;9.35;;
37237;SDS011;23129;49.662;8.448;2023-04-25T06:46:32;26.27;;;9.80;;
37237;SDS011;23129;49.662;8.448;2023-04-25T06:49:01;16.75;;;8.63;;
37237;SDS011;23129;49.662;8.448;2023-04-25T06:51:29;20.30;;;9.38;;
37237;SDS011;23129;49.662;8.448;2023-04-25T06:53:58;25.50;;;8.70;;
37237;SDS011;23129;49.662;8.448;2023-04-25T06:56:34;22.02;;;9.77;;
37237;SDS011;23129;49.662;8.448;2023-04-25T06:59:11;24.23;;;8.57;;
37237;SDS011;23129;49.662;8.448;2023-04-25T07:01:41;21.75;;;7.57;;
37237;SDS011;23129;49.662;8.448;2023-04-25T07:04:15;15.57;;;6.47;;
37237;SDS011;23129;49.662;8.448;2023-04-25T07:06:48;11.23;;;6.18;;
37237;SDS011;23129;49.662;8.448;2023-04-25T07:09:22;15.50;;;7.07;;
37237;SDS011;23129;49.662;8.448;2023-04-25T07:11:51;14.77;;;6.78;;
37237;SDS011;23129;49.662;8.448;2023-04-25T07:14:20;13.25;;;5.35;;
37237;SDS011;23129;49.662;8.448;2023-04-25T07:16:50;16.10;;;6.35;;
37237;SDS011;23129;49.662;8.448;2023-04-25T07:19:19;12.25;;;5.13;;
37237;SDS011;23129;49.662;8.448;2023-04-25T07:21:48;6.97;;;5.38;;
37237;SDS011;23129;49.662;8.448;2023-04-25T07:24:20;18.30;;;6.65;;
37237;SDS011;23129;49.662;8.448;2023-04-25T07:26:50;7.78;;;5.13;;
37237;SDS011;23129;49.662;8.448;2023-04-25T07:29:39;7.95;;;4.38;;
37237;SDS011;23129;49.662;8.448;2023-04-25T07:32:10;8.07;;;5.90;;
37237;SDS011;23129;49.662;8.448;2023-04-25T07:34:41;14.07;;;5.70;;
37237;SDS011;23129;49.662;8.448;2023-04-25T07:37:10;9.20;;;5.18;;
37237;SDS011;23129;49.662;8.448;2023-04-25T07:39:54;13.13;;;7.47;;
37237;SDS011;23129;49.662;8.448;2023-04-25T07:42:23;11.40;;;5.35;;
37237;SDS011;23129;49.662;8.448;2023-04-25T07:44:52;14.05;;;5.88;;
37237;SDS011;23129;49.662;8.448;2023-04-25T07:47:23;14.57;;;4.90;;
37237;SDS011;23129;49.662;8.448;2023-04-25T07:49:53;13.63;;;5.55;;
37237;SDS011;23129;49.662;8.448;2023-04-25T07:52:22;19.67;;;5.78;;
37237;SDS011;23129;49.662;8.448;2023-04-25T07:54:59;13.52;;;4.90;;
37237;SDS011;23129;49.662;8.448;2023-04-25T07:57:39;14.75;;;5.55;;
37237;SDS011;23129;49.662;8.448;2023-04-25T08:00:09;13.93;;;4.55;;
37237;SDS011;23129;49.662;8.448;2023-04-25T08:02:40;8.93;;;4.75;;
37237;SDS011;23129;49.662;8.448;2023-04-25T08:10:17;17.15;;;4.55;;
37237;SDS011;23129;49.662;8.448;2023-04-25T08:12:47;16.20;;;4.88;;
37237;SDS011;23129;49.662;8.448;2023-04-25T08:15:16;10.95;;;4.15;;
37237;SDS011;23129;49.662;8.448;2023-04-25T08:17:46;14.63;;;4.10;;
37237;SDS011;23129;49.662;8.448;2023-04-25T08:20:15;9.63;;;4.15;;
37237;SDS011;23129;49.662;8.448;2023-04-25T08:22:44;13.82;;;4.93;;
37237;SDS011;23129;49.662;8.448;2023-04-25T08:25:35;15.18;;;5.18;;
37237;SDS011;23129;49.662;8.448;2023-04-25T08:28:06;8.65;;;4.05;;
37237;SDS011;23129;49.662;8.448;2023-04-25T08:30:34;8.23;;;4.30;;
37237;SDS011;23129;49.662;8.448;2023-04-25T08:33:07;7.05;;;3.83;;
37237;SDS011;23129;49.662;8.448;2023-04-25T08:35:55;15.93;;;4.60;;
37237;SDS011;23129;49.662;8.448;2023-04-25T08:38:24;7.88;;;3.83;;
37237;SDS011;23129;49.662;8.448;2023-04-25T08:40:53;15.88;;;4.43;;
37237;SDS011;23129;49.662;8.448;2023-04-25T08:43:24;10.63;;;4.88;;
37237;SDS011;23129;49.662;8.448;2023-04-25T08:45:53;13.50;;;5.15;;
37237;SDS011;23129;49.662;8.448;2023-04-25T08:48:47;14.23;;;3.92;;
37237;SDS011;23129;49.662;8.448;2023-04-25T08:51:23;14.07;;;4.47;;
37237;SDS011;23129;49.662;8.448;2023-04-25T08:53:54;12.63;;;4.60;;
37237;SDS011;23129;49.662;8.448;2023-04-25T08:56:30;14.63;;;4.93;;
37237;SDS011;23129;49.662;8.448;2023-04-25T08:59:02;13.63;;;4.15;;
37237;SDS011;23129;49.662;8.448;2023-04-25T09:01:31;11.68;;;4.05;;
37237;SDS011;23129;49.662;8.448;2023-04-25T09:04:01;11.18;;;4.25;;
37237;SDS011;23129;49.662;8.448;2023-04-25T09:06:32;10.98;;;4.18;;
37237;SDS011;23129;49.662;8.448;2023-04-25T09:09:02;9.90;;;4.22;;
37237;SDS011;23129;49.662;8.448;2023-04-25T09:11:32;11.35;;;3.50;;
37237;SDS011;23129;49.662;8.448;2023-04-25T09:14:12;8.10;;;3.90;;
37237;SDS011;23129;49.662;8.448;2023-04-25T09:16:59;8.32;;;4.50;;
37237;SDS011;23129;49.662;8.448;2023-04-25T09:19:37;11.15;;;4.05;;
37237;SDS011;23129;49.662;8.448;2023-04-25T09:22:34;8.65;;;4.00;;
37237;SDS011;23129;49.662;8.448;2023-04-25T09:25:04;11.40;;;3.60;;
37237;SDS011;23129;49.662;8.448;2023-04-25T09:27:48;10.50;;;3.33;;
37237;SDS011;23129;49.662;8.448;2023-04-25T09:30:30;6.95;;;3.33;;
37237;SDS011;23129;49.662;8.448;2023-04-25T09:33:14;5.00;;;2.72;;
37237;SDS011;23129;49.662;8.448;2023-04-25T09:35:48;11.18;;;4.25;;
37237;SDS011;23129;49.662;8.448;2023-04-25T09:38:28;11.75;;;3.55;;
37237;SDS011;23129;49.662;8.448;2023-04-25T09:41:08;8.48;;;3.60;;
37237;SDS011;23129;49.662;8.448;2023-04-25T09:43:42;12.27;;;3.47;;
37237;SDS011;23129;49.662;8.448;2023-04-25T09:46:14;8.25;;;3.30;;
37237;SDS011;23129;49.662;8.448;2023-04-25T09:48:49;11.32;;;3.65;;
37237;SDS011;23129;49.662;8.448;2023-04-25T09:51:28;10.52;;;3.35;;
37237;SDS011;23129;49.662;8.448;2023-04-25T09:53:58;11.15;;;3.38;;
37237;SDS011;23129;49.662;8.448;2023-04-25T09:56:54;7.57;;;3.45;;
37237;SDS011;23129;49.662;8.448;2023-04-25T09:59:23;3.75;;;2.90;;
37237;SDS011;23129;49.662;8.448;2023-04-25T10:01:51;7.82;;;2.97;;
37237;SDS011;23129;49.662;8.448;2023-04-25T10:04:29;7.47;;;2.95;;
37237;SDS011;23129;49.662;8.448;2023-04-25T10:07:19;7.88;;;3.05;;
37237;SDS011;23129;49.662;8.448;2023-04-25T10:09:49;4.80;;;2.25;;
37237;SDS011;23129;49.662;8.448;2023-04-25T10:12:23;1.85;;;1.63;;
37237;SDS011;23129;49.662;8.448;2023-04-25T10:14:52;8.98;;;2.25;;
37237;SDS011;23129;49.662;8.448;2023-04-25T10:17:21;10.48;;;2.35;;
37237;SDS011;23129;49.662;8.448;2023-04-25T10:19:51;3.40;;;2.08;;
37237;SDS011;23129;49.662;8.448;2023-04-25T10:22:23;2.17;;;1.67;;
37237;SDS011;23129;49.662;8.448;2023-04-25T10:24:57;3.88;;;1.67;;
37237;SDS011;23129;49.662;8.448;2023-04-25T10:27:26;15.27;;;2.60;;
37237;SDS011;23129;49.662;8.448;2023-04-25T10:30:02;3.45;;;2.05;;
37237;SDS011;23129;49.662;8.448;2023-04-25T10:32:32;5.57;;;2.03;;
37237;SDS011;23129;49.662;8.448;2023-04-25T10:35:12;1.70;;;1.40;;
37237;SDS011;23129;49.662;8.448;2023-04-25T10:40:32;3.03;;;1.88;;
37237;SDS011;23129;49.662;8.448;2023-04-25T10:46:18;3.80;;;1.55;;
37237;SDS011;23129;49.662;8.448;2023-04-25T10:48:53;9.65;;;2.47;;
37237;SDS011;23129;49.662;8.448;2023-04-25T10:51:23;5.25;;;2.45;;
37237;SDS011;23129;49.662;8.448;2023-04-25T10:53:58;5.38;;;2.60;;
37237;SDS011;23129;49.662;8.448;2023-04-25T10:56:28;7.47;;;2.42;;
37237;SDS011;23129;49.662;8.448;2023-04-25T10:59:06;8.88;;;2.25;;
37237;SDS011;23129;49.662;8.448;2023-04-25T11:01:37;3.85;;;2.53;;
37237;SDS011;23129;49.662;8.448;2023-04-25T11:04:19;3.40;;;2.50;;
37237;SDS011;23129;49.662;8.448;2023-04-25T11:07:00;3.45;;;2.42;;
37237;SDS011;23129;49.662;8.448;2023-04-25T11:09:38;8.90;;;2.58;;
37237;SDS011;23129;49.662;8.448;2023-04-25T11:12:08;5.95;;;2.85;;
37237;SDS011;23129;49.662;8.448;2023-04-25T11:14:38;4.18;;;2.80;;
37237;SDS011;23129;49.662;8.448;2023-04-25T11:17:07;8.13;;;3.00;;
37237;SDS011;23129;49.662;8.448;2023-04-25T11:19:37;3.22;;;2.50;;
37237;SDS011;23129;49.662;8.448;2023-04-25T11:22:05;6.75;;;2.58;;
37237;SDS011;23129;49.662;8.448;2023-04-25T11:24:34;8.75;;;2.95;;
37237;SDS011;23129;49.662;8.448;2023-04-25T11:27:04;3.40;;;2.33;;
37237;SDS011;23129;49.662;8.448;2023-04-25T11:29:33;7.82;;;2.78;;
37237;SDS011;23129;49.662;8.448;2023-04-25T11:32:02;4.82;;;2.75;;
37237;SDS011;23129;49.662;8.448;2023-04-25T11:34:31;9.05;;;2.55;;
37237;SDS011;23129;49.662;8.448;2023-04-25T11:37:01;5.38;;;3.45;;
37237;SDS011;23129;49.662;8.448;2023-04-25T11:39:30;10.98;;;3.38;;
37237;SDS011;23129;49.662;8.448;2023-04-25T11:42:00;4.97;;;2.35;;
37237;SDS011;23129;49.662;8.448;2023-04-25T11:44:33;5.47;;;2.50;;
37237;SDS011;23129;49.662;8.448;2023-04-25T11:47:01;6.60;;;3.20;;
37237;SDS011;23129;49.662;8.448;2023-04-25T11:49:30;3.60;;;2.85;;
37237;SDS011;23129;49.662;8.448;2023-04-25T11:51:59;5.82;;;2.53;;
37237;SDS011;23129;49.662;8.448;2023-04-25T11:54:27;8.35;;;2.25;;
37237;SDS011;23129;49.662;8.448;2023-04-25T11:56:56;4.82;;;2.95;;
37237;SDS011;23129;49.662;8.448;2023-04-25T11:59:26;3.58;;;2.65;;
37237;SDS011;23129;49.662;8.448;2023-04-25T12:01:55;7.65;;;2.88;;
37237;SDS011;23129;49.662;8.448;2023-04-25T12:04:24;6.40;;;3.25;;
37237;SDS011;23129;49.662;8.448;2023-04-25T12:06:54;5.38;;;2.47;;
37237;SDS011;23129;49.662;8.448;2023-04-25T12:09:27;5.75;;;2.70;;
37237;SDS011;23129;49.662;8.448;2023-04-25T12:11:57;9.73;;;3.03;;
37237;SDS011;23129;49.662;8.448;2023-04-25T12:14:31;9.20;;;3.38;;
37237;SDS011;23129;49.662;8.448;2023-04-25T12:17:01;9.82;;;3.20;;
37237;SDS011;23129;49.662;8.448;2023-04-25T12:19:34;10.18;;;3.85;;
37237;SDS011;23129;49.662;8.448;2023-04-25T12:22:18;11.07;;;3.22;;
37237;SDS011;23129;49.662;8.448;2023-04-25T12:24:48;9.95;;;3.97;;
37237;SDS011;23129;49.662;8.448;2023-04-25T12:27:17;7.53;;;3.25;;
37237;SDS011;23129;49.662;8.448;2023-04-25T12:29:54;5.28;;;2.85;;
37237;SDS011;23129;49.662;8.448;2023-04-25T12:32:23;8.70;;;3.88;;
37237;SDS011;23129;49.662;8.448;2023-04-25T12:34:52;4.72;;;3.03;;
37237;SDS011;23129;49.662;8.448;2023-04-25T12:37:21;9.80;;;2.92;;
37237;SDS011;23129;49.662;8.448;2023-04-25T12:39:50;6.88;;;3.20;;
37237;SDS011;23129;49.662;8.448;2023-04-25T12:42:19;10.35;;;2.92;;
37237;SDS011;23129;49.662;8.448;2023-04-25T12:44:47;12.07;;;3.40;;
37237;SDS011;23129;49.662;8.448;2023-04-25T12:47:17;6.05;;;3.10;;
37237;SDS011;23129;49.662;8.448;2023-04-25T12:49:46;7.88;;;3.20;;
37237;SDS011;23129;49.662;8.448;2023-04-25T12:52:15;4.60;;;2.80;;
37237;SDS011;23129;49.662;8.448;2023-04-25T12:54:43;4.25;;;2.65;;
37237;SDS011;23129;49.662;8.448;2023-04-25T12:57:12;8.50;;;3.25;;
37237;SDS011;23129;49.662;8.448;2023-04-25T12:59:41;8.02;;;2.72;;
37237;SDS011;23129;49.662;8.448;2023-04-25T13:02:09;11.30;;;5.68;;
37237;SDS011;23129;49.662;8.448;2023-04-25T13:04:40;19.45;;;3.88;;
37237;SDS011;23129;49.662;8.448;2023-04-25T13:07:08;7.63;;;3.03;;
37237;SDS011;23129;49.662;8.448;2023-04-25T13:09:37;7.65;;;3.20;;
37237;SDS011;23129;49.662;8.448;2023-04-25T13:12:06;9.38;;;3.67;;
37237;SDS011;23129;49.662;8.448;2023-04-25T13:14:34;9.23;;;3.03;;
37237;SDS011;23129;49.662;8.448;2023-04-25T13:17:03;4.40;;;3.33;;
37237;SDS011;23129;49.662;8.448;2023-04-25T13:19:32;8.50;;;2.78;;
37237;SDS011;23129;49.662;8.448;2023-04-25T13:22:02;5.18;;;2.42;;
37237;SDS011;23129;49.662;8.448;2023-04-25T13:24:31;7.82;;;2.90;;
37237;SDS011;23129;49.662;8.448;2023-04-25T13:27:00;10.15;;;2.90;;
37237;SDS011;23129;49.662;8.448;2023-04-25T13:29:31;8.13;;;2.65;;
37237;SDS011;23129;49.662;8.448;2023-04-25T13:32:01;7.53;;;2.50;;
37237;SDS011;23129;49.662;8.448;2023-04-25T13:34:31;10.45;;;2.38;;
37237;SDS011;23129;49.662;8.448;2023-04-25T13:37:02;8.68;;;2.78;;
37237;SDS011;23129;49.662;8.448;2023-04-25T13:39:31;9.77;;;2.75;;
37237;SDS011;23129;49.662;8.448;2023-04-25T13:42:00;4.07;;;1.95;;
37237;SDS011;23129;49.662;8.448;2023-04-25T13:44:29;10.90;;;3.65;;
37237;SDS011;23129;49.662;8.448;2023-04-25T13:46:58;7.85;;;2.55;;
37237;SDS011;23129;49.662;8.448;2023-04-25T13:49:27;7.55;;;2.50;;
37237;SDS011;23129;49.662;8.448;2023-04-25T13:51:56;10.52;;;3.25;;
37237;SDS011;23129;49.662;8.448;2023-04-25T13:54:26;6.82;;;2.42;;
37237;SDS011;23129;49.662;8.448;2023-04-25T13:56:54;19.02;;;3.30;;
37237;SDS011;23129;49.662;8.448;2023-04-25T13:59:25;13.20;;;3.67;;
37237;SDS011;23129;49.662;8.448;2023-04-25T14:01:53;3.50;;;2.47;;
37237;SDS011;23129;49.662;8.448;2023-04-25T14:04:22;8.40;;;2.67;;
37237;SDS011;23129;49.662;8.448;2023-04-25T14:06:51;9.00;;;3.03;;
37237;SDS011;23129;49.662;8.448;2023-04-25T14:09:20;15.35;;;2.72;;
37237;SDS011;23129;49.662;8.448;2023-04-25T14:11:53;5.65;;;2.60;;
37237;SDS011;23129;49.662;8.448;2023-04-25T14:14:22;9.48;;;2.88;;
37237;SDS011;23129;49.662;8.448;2023-04-25T14:16:51;10.43;;;3.95;;
37237;SDS011;23129;49.662;8.448;2023-04-25T14:19:21;5.20;;;2.42;;
37237;SDS011;23129;49.662;8.448;2023-04-25T14:21:50;6.35;;;2.50;;
37237;SDS011;23129;49.662;8.448;2023-04-25T14:24:19;10.38;;;2.63;;
37237;SDS011;23129;49.662;8.448;2023-04-25T14:26:48;14.07;;;3.00;;
37237;SDS011;23129;49.662;8.448;2023-04-25T14:29:18;7.63;;;2.08;;
37237;SDS011;23129;49.662;8.448;2023-04-25T14:31:46;9.80;;;2.20;;
37237;SDS011;23129;49.662;8.448;2023-04-25T14:34:15;9.02;;;2.38;;
37237;SDS011;23129;49.662;8.448;2023-04-25T14:36:44;10.73;;;2.70;;
37237;SDS011;23129;49.662;8.448;2023-04-25T14:39:13;5.75;;;2.75;;
37237;SDS011;23129;49.662;8.448;2023-04-25T14:41:41;4.93;;;2.08;;
37237;SDS011;23129;49.662;8.448;2023-04-25T14:44:10;8.07;;;2.47;;
37237;SDS011;23129;49.662;8.448;2023-04-25T14:46:40;7.05;;;2.05;;
37237;SDS011;23129;49.662;8.448;2023-04-25T14:49:09;5.30;;;2.45;;
37237;SDS011;23129;49.662;8.448;2023-04-25T14:51:38;8.98;;;2.60;;
37237;SDS011;23129;49.662;8.448;2023-04-25T14:54:07;6.18;;;2.00;;
37237;SDS011;23129;49.662;8.448;2023-04-25T14:56:37;5.35;;;2.20;;
37237;SDS011;23129;49.662;8.448;2023-04-25T14:59:06;6.25;;;2.20;;
37237;SDS011;23129;49.662;8.448;2023-04-25T15:01:34;3.25;;;2.03;;
37237;SDS011;23129;49.662;8.448;2023-04-25T15:04:04;6.53;;;2.05;;
37237;SDS011;23129;49.662;8.448;2023-04-25T15:06:33;5.28;;;2.05;;
37237;SDS011;23129;49.662;8.448;2023-04-25T15:09:02;8.35;;;1.90;;
37237;SDS011;23129;49.662;8.448;2023-04-25T15:11:31;8.07;;;2.65;;
37237;SDS011;23129;49.662;8.448;2023-04-25T15:14:00;6.97;;;2.60;;
37237;SDS011;23129;49.662;8.448;2023-04-25T15:16:29;5.95;;;1.98;;
37237;SDS011;23129;49.662;8.448;2023-04-25T15:18:58;5.13;;;1.90;;
37237;SDS011;23129;49.662;8.448;2023-04-25T15:21:31;5.18;;;2.10;;
37237;SDS011;23129;49.662;8.448;2023-04-25T15:24:00;5.95;;;1.48;;
37237;SDS011;23129;49.662;8.448;2023-04-25T15:26:29;3.83;;;1.70;;
37237;SDS011;23129;49.662;8.448;2023-04-25T15:28:57;6.07;;;1.48;;